createdAt,value
2023-03-03T03:13:40.373Z,30.30
2023-03-03T03:16:43.337Z,39.07
2023-03-03T03:19:45.961Z,38.33
2023-03-03T03:22:48.742Z,53.17
2023-03-03T03:25:51.486Z,39.83
2023-03-03T03:28:55.892Z,40.70
2023-03-03T03:31:58.566Z,35.80
2023-03-03T03:35:01.330Z,39.47
2023-03-03T03:38:04.273Z,35.17
2023-03-03T03:41:07.965Z,54.80
2023-03-03T03:44:12.197Z,47.67
2023-03-03T03:47:14.787Z,45.80
2023-03-03T03:50:17.508Z,38.77
2023-03-03T03:53:20.491Z,46.93
2023-03-03T03:56:23.087Z,34.10
2023-03-03T03:59:27.033Z,36.67
2023-03-03T04:02:29.829Z,30.13
2023-03-03T04:05:32.491Z,29.20
2023-03-03T04:08:35.094Z,32.90
2023-03-03T04:11:37.695Z,40.17
2023-03-03T04:14:41.720Z,33.83
2023-03-03T04:17:44.424Z,42.70
2023-03-03T04:20:47.051Z,33.47
2023-03-03T04:23:49.655Z,32.03
2023-03-03T04:26:52.251Z,31.27
2023-03-03T04:29:56.173Z,35.17
2023-03-03T04:32:58.889Z,33.30
2023-03-03T04:36:01.464Z,46.70
2023-03-03T04:39:04.292Z,36.07
2023-03-03T04:42:07.065Z,39.60
2023-03-03T04:45:12.390Z,35.17
2023-03-03T04:48:15.247Z,40.07
2023-03-03T04:51:18.656Z,34.77
2023-03-03T04:54:21.285Z,45.90
2023-03-03T04:57:23.886Z,37.00
2023-03-03T05:00:27.886Z,37.20
2023-03-03T05:03:30.563Z,34.83
2023-03-03T05:06:33.257Z,41.63
2023-03-03T05:09:35.918Z,37.20
2023-03-03T05:12:38.550Z,42.13
2023-03-03T05:15:43.449Z,45.03
2023-03-03T05:18:46.539Z,47.47
2023-03-03T05:21:49.140Z,46.40
2023-03-03T05:24:51.778Z,53.27
2023-03-03T05:27:54.891Z,56.83
2023-03-03T05:30:58.848Z,49.53
2023-03-03T05:34:01.433Z,40.67
2023-03-03T05:37:06.690Z,37.47
2023-03-03T05:40:10.737Z,37.77
2023-03-03T05:43:13.330Z,43.13
2023-03-03T05:46:17.333Z,36.30
2023-03-03T05:49:19.935Z,41.00
2023-03-03T05:52:24.208Z,39.30
2023-03-03T05:55:26.832Z,39.00
2023-03-03T05:58:29.435Z,33.27
2023-03-03T06:01:33.790Z,32.33
2023-03-03T06:04:36.435Z,35.40
2023-03-03T06:07:39.023Z,34.43
2023-03-03T06:10:41.621Z,34.80
2023-03-03T06:13:44.226Z,32.40
2023-03-03T06:16:48.303Z,34.90
2023-03-03T06:19:50.987Z,40.87
2023-03-03T06:22:53.635Z,38.57
2023-03-03T06:25:56.325Z,40.93
2023-03-03T06:28:59.668Z,40.07
2023-03-03T06:32:03.994Z,43.23
2023-03-03T06:35:07.551Z,41.63
2023-03-03T06:38:10.143Z,47.23
2023-03-03T06:41:13.107Z,50.60
2023-03-03T06:44:15.749Z,49.70
2023-03-03T06:47:19.673Z,49.67
2023-03-03T06:50:22.414Z,58.20
2023-03-03T06:53:26.496Z,63.77
2023-03-03T06:56:29.605Z,58.70
2023-03-03T06:59:32.201Z,57.60
2023-03-03T07:02:36.130Z,57.63
2023-03-03T07:05:38.741Z,54.73
2023-03-03T07:08:41.686Z,52.03
2023-03-03T07:11:46.542Z,58.73
2023-03-03T07:14:55.481Z,75.90
2023-03-03T07:17:59.690Z,60.17
2023-03-03T07:21:14.297Z,56.07
2023-03-03T07:24:27.095Z,59.90
2023-03-03T07:27:32.129Z,60.73
2023-03-03T07:30:34.747Z,68.07
2023-03-03T07:33:44.739Z,60.77
2023-03-03T07:36:47.401Z,59.00
2023-03-03T07:39:51.645Z,59.50
2023-03-03T07:42:54.238Z,62.23
2023-03-03T07:46:02.759Z,64.57
2023-03-03T07:49:21.536Z,69.57
2023-03-03T07:52:30.612Z,62.57
2023-03-03T07:55:37.244Z,66.97
2023-03-03T07:58:41.911Z,64.53
2023-03-03T08:01:49.302Z,73.60
2023-03-03T08:04:54.753Z,67.60
2023-03-03T08:08:13.219Z,61.47
2023-03-03T08:11:15.870Z,66.07
2023-03-03T08:14:26.507Z,67.83
2023-03-03T08:17:37.729Z,57.37
2023-03-03T08:20:46.343Z,59.70
2023-03-03T08:23:51.498Z,62.03
2023-03-03T08:26:54.074Z,56.93
2023-03-03T08:29:56.706Z,60.33
2023-03-03T08:32:59.364Z,60.50
2023-03-03T08:36:03.368Z,59.23
2023-03-03T08:39:06.449Z,63.97
2023-03-03T08:42:09.020Z,62.13
2023-03-03T08:45:11.641Z,60.10
2023-03-03T08:48:15.034Z,62.50
2023-03-03T08:51:19.117Z,65.73
2023-03-03T08:54:21.684Z,62.23
2023-03-03T08:57:24.394Z,56.43
2023-03-03T09:00:27.517Z,60.77
2023-03-03T09:03:30.809Z,63.27
2023-03-03T09:06:34.797Z,64.00
2023-03-03T09:09:38.647Z,67.40
2023-03-03T09:12:44.046Z,73.93
2023-03-03T09:15:49.180Z,53.87
2023-03-03T09:18:51.876Z,66.57
2023-03-03T09:21:57.527Z,62.13
2023-03-03T09:25:00.723Z,63.80
2023-03-03T09:28:04.233Z,64.23
2023-03-03T09:31:23.194Z,60.20
2023-03-03T09:34:32.164Z,60.47
2023-03-03T09:37:40.388Z,66.67
2023-03-03T09:40:56.154Z,64.27
2023-03-03T09:44:17.205Z,62.80
2023-03-03T09:47:48.110Z,74.93
2023-03-03T09:51:04.220Z,62.07
2023-03-03T09:54:18.846Z,66.63
2023-03-03T09:57:30.505Z,65.37
2023-03-03T10:00:42.982Z,68.90
2023-03-03T10:04:17.094Z,66.80
2023-03-03T10:07:28.638Z,62.63
2023-03-03T10:10:50.054Z,65.63
2023-03-03T10:14:19.780Z,67.57
2023-03-03T10:17:38.289Z,65.50
2023-03-03T10:20:58.459Z,68.80
2023-03-03T10:24:15.601Z,65.77
2023-03-03T10:27:37.806Z,66.63
2023-03-03T10:31:04.664Z,64.07
2023-03-03T10:34:22.168Z,64.20
2023-03-03T10:37:31.839Z,59.87
2023-03-03T10:40:38.662Z,68.70
2023-03-03T10:43:59.833Z,72.17
2023-03-03T10:47:35.595Z,70.30
2023-03-03T10:50:51.461Z,62.90
2023-03-03T10:54:07.735Z,60.20
2023-03-03T10:57:19.796Z,67.50
2023-03-03T11:00:27.645Z,74.30
2023-03-03T11:04:08.720Z,73.07
2023-03-03T11:07:20.807Z,65.00
2023-03-03T11:10:37.994Z,66.03
2023-03-03T11:13:46.993Z,63.13
2023-03-03T11:17:02.518Z,53.10
2023-03-03T11:20:10.689Z,54.47
2023-03-03T11:23:30.674Z,49.77
2023-03-03T11:26:44.523Z,48.93
2023-03-03T11:30:10.096Z,45.07
2023-03-03T11:33:21.744Z,43.20
2023-03-03T11:36:29.943Z,46.77
2023-03-03T11:39:32.615Z,38.80
2023-03-03T11:42:47.956Z,38.23
2023-03-03T11:45:56.286Z,40.53
2023-03-03T11:49:06.008Z,38.90
2023-03-03T11:52:21.475Z,41.03
2023-03-03T11:55:31.487Z,42.77
2023-03-03T11:58:43.662Z,36.40
2023-03-03T12:01:53.394Z,34.63
2023-03-03T12:05:01.079Z,32.73
2023-03-03T12:08:16.505Z,30.83
2023-03-03T12:11:25.548Z,29.10
2023-03-03T12:14:42.831Z,33.17
2023-03-03T12:18:17.061Z,31.37
2023-03-03T12:21:41.416Z,26.63
2023-03-03T12:24:58.102Z,25.30
2023-03-03T12:28:07.262Z,29.77
2023-03-03T12:31:22.641Z,22.73
2023-03-03T12:34:35.437Z,22.70
2023-03-03T12:37:50.723Z,18.63
2023-03-03T12:41:01.704Z,16.87
2023-03-03T12:44:09.329Z,22.97
2023-03-03T12:47:19.912Z,20.87
2023-03-03T12:50:33.572Z,20.67
2023-03-03T12:53:52.203Z,18.00
2023-03-03T12:56:56.519Z,18.70
2023-03-03T13:00:22.984Z,11.60
2023-03-03T13:03:53.300Z,16.47
2023-03-03T13:07:05.667Z,14.27
2023-03-03T13:10:19.421Z,14.90
2023-03-03T13:13:28.666Z,16.67
2023-03-03T13:16:41.482Z,14.83
2023-03-03T13:19:50.401Z,14.63
2023-03-03T13:22:59.202Z,12.13
2023-03-03T13:26:08.861Z,18.77
2023-03-03T13:29:20.432Z,13.27
2023-03-03T13:32:24.924Z,18.03
2023-03-03T13:35:38.783Z,11.80
2023-03-03T13:38:44.025Z,12.70
2023-03-03T13:41:56.900Z,11.33
2023-03-03T13:45:02.893Z,14.80
2023-03-03T13:48:16.200Z,15.57
2023-03-03T13:51:27.652Z,17.00
2023-03-03T13:55:01.142Z,14.83
2023-03-03T13:58:12.665Z,13.93
2023-03-03T14:01:21.865Z,9.90
2023-03-03T14:04:33.870Z,7.07
2023-03-03T14:07:42.480Z,12.80
2023-03-03T14:10:50.124Z,7.17
2023-03-03T14:14:03.642Z,12.67
2023-03-03T14:17:16.759Z,6.23
2023-03-03T14:20:25.054Z,8.17
2023-03-03T14:23:35.815Z,11.67
2023-03-03T14:26:49.350Z,7.47
2023-03-03T14:29:53.336Z,4.00
2023-03-03T14:33:06.490Z,12.87
2023-03-03T14:36:15.912Z,7.80
2023-03-03T14:39:31.574Z,6.30
2023-03-03T14:42:38.062Z,6.63
2023-03-03T14:45:43.066Z,6.57
2023-03-03T14:48:52.165Z,7.73
2023-03-03T14:51:54.885Z,11.43
2023-03-03T14:55:00.362Z,14.63
2023-03-03T14:58:04.101Z,11.70
2023-03-03T15:01:22.112Z,11.53
2023-03-03T15:04:26.546Z,7.63
2023-03-03T15:07:34.330Z,9.67
2023-03-03T15:10:38.482Z,8.73
2023-03-03T15:13:41.128Z,10.90
2023-03-03T15:16:45.442Z,8.07
2023-03-03T15:20:19.860Z,6.93
2023-03-03T15:23:38.383Z,8.37
2023-03-03T15:26:48.258Z,7.67
2023-03-03T15:30:02.680Z,6.17
2023-03-03T15:33:20.620Z,5.33
2023-03-03T15:36:32.134Z,5.27
2023-03-03T15:39:44.393Z,9.97
2023-03-03T15:42:50.363Z,7.63
2023-03-03T15:46:03.439Z,17.60
2023-03-03T15:49:21.410Z,19.87
2023-03-03T15:52:38.120Z,12.23
2023-03-03T15:55:53.736Z,11.30
2023-03-03T15:59:23.433Z,7.90
2023-03-03T16:02:33.987Z,6.43
2023-03-03T16:05:45.777Z,6.80
2023-03-03T16:09:00.159Z,7.40
2023-03-03T16:12:13.427Z,13.17
2023-03-03T16:15:50.632Z,8.53
2023-03-03T16:19:04.428Z,11.13
2023-03-03T16:22:47.986Z,13.47
2023-03-03T16:26:07.621Z,16.23
2023-03-03T16:29:33.359Z,12.93
2023-03-03T16:32:42.605Z,18.47
2023-03-03T16:35:53.211Z,13.13
2023-03-03T16:39:04.710Z,11.40
2023-03-03T16:42:16.017Z,19.80
2023-03-03T16:45:23.968Z,15.40
2023-03-03T16:48:43.739Z,13.73
2023-03-03T16:51:51.213Z,13.60
2023-03-03T16:54:58.272Z,20.43
2023-03-03T16:58:15.607Z,19.03
2023-03-03T17:01:27.894Z,13.17
2023-03-03T17:04:40.874Z,16.57
2023-03-03T17:07:45.688Z,16.47
2023-03-03T17:10:56.413Z,24.03
2023-03-03T17:14:13.959Z,12.77
2023-03-03T17:17:27.478Z,13.20
2023-03-03T17:20:36.403Z,17.33
2023-03-03T17:23:50.665Z,13.07
2023-03-03T17:27:06.905Z,17.97
2023-03-03T17:30:17.921Z,22.03
2023-03-03T17:33:36.627Z,25.07
2023-03-03T17:36:51.073Z,14.97
2023-03-03T17:40:18.829Z,16.27
2023-03-03T17:43:26.672Z,21.03
2023-03-03T17:46:35.406Z,21.17
2023-03-03T17:49:52.483Z,26.50
2023-03-03T17:53:08.246Z,25.53
2023-03-03T17:56:19.458Z,25.07
2023-03-03T17:59:41.474Z,30.07
2023-03-03T18:03:19.722Z,23.90
2023-03-03T18:06:39.720Z,26.50
2023-03-03T18:09:59.915Z,21.07
2023-03-03T18:13:10.029Z,22.17
2023-03-03T18:16:25.908Z,20.03
2023-03-03T18:19:49.004Z,30.27
2023-03-03T18:22:53.491Z,24.63
2023-03-03T18:25:58.684Z,29.03
2023-03-03T18:29:20.966Z,24.87
2023-03-03T18:32:25.290Z,22.03
2023-03-03T18:35:32.395Z,25.53
2023-03-03T18:38:41.625Z,23.60
2023-03-03T18:42:09.366Z,30.20
2023-03-03T18:45:53.587Z,42.07
2023-03-03T18:49:01.666Z,44.87
2023-03-03T18:52:21.045Z,36.07
2023-03-03T18:55:26.987Z,55.73
2023-03-03T18:58:35.834Z,26.03
2023-03-03T19:01:44.963Z,25.43
2023-03-03T19:04:55.432Z,26.10
2023-03-03T19:08:00.692Z,46.07
2023-03-03T19:11:04.352Z,28.23
2023-03-03T19:14:25.546Z,22.80
2023-03-03T19:17:50.568Z,24.53
2023-03-03T19:21:00.823Z,26.03
2023-03-03T19:24:04.845Z,32.83
2023-03-03T19:27:32.084Z,24.17
2023-03-03T19:30:46.079Z,32.30
2023-03-03T19:33:57.024Z,54.33
2023-03-03T19:37:14.652Z,51.40
2023-03-03T19:40:26.029Z,56.47
2023-03-03T19:43:39.382Z,41.70
2023-03-03T19:46:55.828Z,28.23
2023-03-03T19:50:18.276Z,34.23
2023-03-03T19:53:32.068Z,29.20
2023-03-03T19:56:41.426Z,35.77
2023-03-03T19:59:50.348Z,22.60
2023-03-03T20:03:12.804Z,27.63
2023-03-03T20:06:32.824Z,26.07
2023-03-03T20:09:46.123Z,27.33
2023-03-03T20:13:03.645Z,30.83
2023-03-03T20:16:17.772Z,28.17
2023-03-03T20:19:37.665Z,26.60
2023-03-03T20:22:48.016Z,28.87
2023-03-03T20:25:56.848Z,35.60
2023-03-03T20:29:33.709Z,35.73
2023-03-03T20:32:59.145Z,35.00
2023-03-03T20:36:11.692Z,43.03
2023-03-03T20:39:22.520Z,32.87
2023-03-03T20:42:38.831Z,28.33
2023-03-03T20:45:55.266Z,49.17
2023-03-03T20:49:20.898Z,27.30
2023-03-03T20:52:32.895Z,24.57
2023-03-03T20:55:43.680Z,32.77
2023-03-03T20:59:05.882Z,27.57
2023-03-03T21:02:18.918Z,30.13
2023-03-03T21:05:23.186Z,25.57
2023-03-03T21:08:44.726Z,27.60
2023-03-03T21:11:47.428Z,39.33
2023-03-03T21:15:00.854Z,26.57
2023-03-03T21:18:21.973Z,35.63
2023-03-03T21:21:24.673Z,31.27
2023-03-03T21:24:49.115Z,25.00
2023-03-03T21:27:51.751Z,30.53
2023-03-03T21:31:10.820Z,20.80
2023-03-03T21:34:28.056Z,23.77
2023-03-03T21:37:45.985Z,30.83
2023-03-03T21:41:00.486Z,28.90
2023-03-03T21:44:03.108Z,30.67
2023-03-03T21:47:08.741Z,24.43
2023-03-03T21:50:12.425Z,32.70
2023-03-03T21:53:15.011Z,30.03
2023-03-03T21:56:17.625Z,26.10
2023-03-03T21:59:20.587Z,29.60
2023-03-03T22:02:24.563Z,30.47
2023-03-03T22:05:27.120Z,25.73
2023-03-03T22:08:29.918Z,25.43
2023-03-03T22:11:32.703Z,44.60
2023-03-03T22:14:35.539Z,26.90
2023-03-03T22:17:40.660Z,26.53
2023-03-03T22:20:43.239Z,33.40
2023-03-03T22:23:45.825Z,40.07
2023-03-03T22:26:48.440Z,41.90
2023-03-03T22:29:51.007Z,22.57
2023-03-03T22:32:55.242Z,28.10
2023-03-03T22:35:57.909Z,28.27
2023-03-03T22:39:00.893Z,24.27
2023-03-03T22:42:03.595Z,34.90
2023-03-03T22:45:07.108Z,54.47
2023-03-03T22:48:11.622Z,21.73
2023-03-03T22:51:14.195Z,27.50
2023-03-03T22:54:16.782Z,20.93
2023-03-03T22:57:19.419Z,28.17
2023-03-03T23:00:22.541Z,16.80
2023-03-03T23:03:26.558Z,16.10
2023-03-03T23:06:29.293Z,26.17
2023-03-03T23:09:31.917Z,29.33
2023-03-03T23:12:34.560Z,23.03
2023-03-03T23:15:37.256Z,20.57
2023-03-03T23:18:41.208Z,19.83
2023-03-03T23:21:43.817Z,17.40
2023-03-03T23:24:46.428Z,26.60
2023-03-03T23:27:49.017Z,24.93
2023-03-03T23:30:52.401Z,18.90
2023-03-03T23:33:56.706Z,23.07
2023-03-03T23:36:59.429Z,25.57
2023-03-03T23:40:02.055Z,23.47
2023-03-03T23:43:04.644Z,18.90
2023-03-03T23:46:07.239Z,24.17
2023-03-03T23:49:11.171Z,18.63
2023-03-03T23:52:13.742Z,19.23
2023-03-03T23:55:16.653Z,18.90
2023-03-03T23:58:19.319Z,16.63
